Time;durP1;ratioP1;P1;durP2;ratioP2;P2;SDS_P1;SDS_P2;PMS_P1;PMS_P2;Temp;Humidity;BMP_temperature;BMP_pressure;BME280_temperature;BME280_humidity;BME280_pressure;Samples;Min_cycle;Max_cycle;Signal;HPM_P1;HPM_P2
2022/08/24 00:01:29;;;;;;;5.83;2.30;;;;;;;24.06;42.33;100605.03;4140441;28;20053;-65
2022/08/24 00:03:33;;;;;;;5.53;2.33;;;;;;;24.02;42.49;100606.97;4138915;28;20288;-65
2022/08/24 00:05:38;;;;;;;8.18;2.60;;;;;;;23.99;42.14;100607.09;4136266;28;20479;-65
2022/08/24 00:07:40;;;;;;;5.63;2.70;;;;;;;23.93;42.56;100596.69;4140569;28;20053;-65
2022/08/24 00:09:43;;;;;;;8.63;3.00;;;;;;;23.92;42.99;100600.28;4147436;28;20038;-65
2022/08/24 00:11:51;;;;;;;7.20;2.67;;;;;;;23.91;42.89;100601.19;4140693;28;20065;-65
2022/08/24 00:13:54;;;;;;;10.15;2.72;;;;;;;23.92;42.62;100604.69;4136545;28;20508;-65
2022/08/24 00:15:57;;;;;;;6.45;2.33;;;;;;;23.88;42.81;100598.66;4141283;28;20035;-65
2022/08/24 00:18:01;;;;;;;6.47;2.45;;;;;;;23.82;43.01;100604.19;4152610;28;20081;-65
2022/08/24 00:20:07;;;;;;;8.05;2.42;;;;;;;23.78;43.44;100603.41;4148083;28;20652;-65
2022/08/24 00:22:12;;;;;;;7.28;2.53;;;;;;;23.73;43.56;100601.88;4140657;28;20194;-65
2022/08/24 00:24:15;;;;;;;5.38;2.13;;;;;;;23.71;43.35;100596.63;4147702;28;20054;-65
2022/08/24 00:26:18;;;;;;;6.07;2.30;;;;;;;23.64;43.64;100603.97;4147610;28;20216;-65
2022/08/24 00:28:31;;;;;;;4.30;2.53;;;;;;;23.59;43.56;100605.91;4136571;28;20141;-65
2022/08/24 00:30:34;;;;;;;3.03;2.13;;;;;;;23.59;43.89;100602.41;4138077;28;20488;-65
2022/08/24 00:32:37;;;;;;;6.93;2.80;;;;;;;23.62;43.30;100607.59;4157290;28;20292;-65
2022/08/24 00:34:40;;;;;;;4.88;2.80;;;;;;;23.57;43.31;100610.44;4141570;28;20038;-65
2022/08/24 00:36:53;;;;;;;8.35;3.10;;;;;;;23.48;43.80;100610.75;4137483;28;20121;-65
2022/08/24 00:38:58;;;;;;;8.05;2.85;;;;;;;23.46;43.88;100604.66;4132911;28;20102;-65
2022/08/24 00:41:02;;;;;;;5.07;2.70;;;;;;;23.42;43.58;100609.22;4143033;28;20109;-65
2022/08/24 00:43:07;;;;;;;5.22;2.60;;;;;;;23.37;43.94;100608.50;4143451;28;20038;-65
2022/08/24 00:45:15;;;;;;;4.72;2.30;;;;;;;23.35;44.16;100608.56;4160119;28;20103;-65
2022/08/24 00:47:21;;;;;;;6.32;2.72;;;;;;;23.39;44.42;100611.97;4140013;28;20519;-65
2022/08/24 00:49:30;;;;;;;5.70;2.47;;;;;;;23.45;44.09;100610.88;4145569;28;20052;-65
2022/08/24 00:51:37;;;;;;;8.68;3.00;;;;;;;23.45;44.39;100613.53;4136319;28;20046;-65
2022/08/24 00:53:45;;;;;;;6.82;2.80;;;;;;;23.45;44.30;100610.88;4135783;28;20041;-65
2022/08/24 00:55:52;;;;;;;6.43;3.17;;;;;;;23.42;44.37;100616.28;4153505;28;20045;-65
2022/08/24 00:58:19;;;;;;;9.70;2.42;;;;;;;23.42;44.50;100608.34;4163564;28;20048;-65
2022/08/24 01:00:26;;;;;;;5.82;2.47;;;;;;;23.44;44.67;100615.31;4139633;28;20038;-65
2022/08/24 01:02:32;;;;;;;9.15;2.85;;;;;;;23.48;44.25;100610.75;4137996;28;20061;-65
2022/08/24 01:04:43;;;;;;;6.63;2.55;;;;;;;23.47;44.39;100617.00;4134428;28;20068;-65
2022/08/24 01:06:48;;;;;;;5.90;2.63;;;;;;;23.40;44.49;100610.19;4140036;28;20041;-65
2022/08/24 01:08:51;;;;;;;7.35;3.30;;;;;;;23.42;44.54;100616.28;4136671;28;20045;-65
2022/08/24 01:11:03;;;;;;;5.90;2.90;;;;;;;23.43;44.55;100618.03;4129210;28;20052;-65
2022/08/24 01:13:09;;;;;;;4.65;2.78;;;;;;;23.39;44.67;100613.75;4141550;28;20173;-65
2022/08/24 01:15:12;;;;;;;5.10;3.03;;;;;;;23.44;44.69;100619.78;4146140;28;20100;-65
2022/08/24 01:19:46;;;;;;;7.55;3.05;;;;;;;23.35;44.45;100608.56;4142807;28;20030;-65
2022/08/24 01:21:59;;;;;;;5.72;3.35;;;;;;;23.37;44.61;100612.97;4153869;28;20140;-65
2022/08/24 01:24:05;;;;;;;6.35;3.15;;;;;;;23.35;44.53;100613.88;4136173;28;20377;-65
2022/08/24 01:26:12;;;;;;;9.18;3.65;;;;;;;23.33;44.67;100602.47;4136672;28;20038;-65
2022/08/24 01:28:20;;;;;;;6.30;3.03;;;;;;;23.31;44.59;100609.59;4145416;28;20073;-64
2022/08/24 01:30:47;;;;;;;8.68;3.38;;;;;;;23.30;44.46;100601.69;4144954;28;20532;-65
2022/08/24 01:32:54;;;;;;;6.40;2.95;;;;;;;23.27;44.51;100601.81;4141666;28;20520;-65
2022/08/24 01:34:58;;;;;;;6.47;3.13;;;;;;;23.23;45.08;100608.13;4132975;28;20125;-65
2022/08/24 01:37:02;;;;;;;4.55;2.50;;;;;;;23.26;44.92;100594.75;4143066;28;20038;-65
2022/08/24 01:39:10;;;;;;;4.28;2.55;;;;;;;23.23;44.97;100598.41;4137233;28;20052;-65
2022/08/24 01:41:13;;;;;;;7.03;2.97;;;;;;;23.20;45.16;100597.66;4141945;28;20671;-65
2022/08/24 01:43:16;;;;;;;6.57;3.00;;;;;;;23.16;44.90;100595.09;4142726;28;20542;-65
2022/08/24 01:45:20;;;;;;;7.68;3.08;;;;;;;23.12;44.81;100601.44;4148027;28;20304;-65
2022/08/24 01:47:23;;;;;;;5.78;3.05;;;;;;;23.14;44.96;100601.38;4131583;28;20042;-65
2022/08/24 01:49:29;;;;;;;4.90;2.97;;;;;;;23.12;45.05;100616.50;4131861;28;20074;-65
2022/08/24 01:51:34;;;;;;;7.28;2.95;;;;;;;23.16;45.28;100624.28;4137493;28;20046;-65
2022/08/24 01:53:37;;;;;;;7.80;3.00;;;;;;;23.13;45.13;100616.44;4142587;28;20512;-64
2022/08/24 01:55:43;;;;;;;6.70;3.03;;;;;;;22.97;45.04;100621.38;4158479;28;20033;-65
2022/08/24 01:57:46;;;;;;;8.00;3.00;;;;;;;22.84;45.70;100620.06;4145149;28;20038;-65
2022/08/24 01:59:49;;;;;;;5.75;3.42;;;;;;;22.84;46.00;100630.69;4144370;28;20034;-65
2022/08/24 02:01:54;;;;;;;5.20;3.35;;;;;;;22.91;45.71;100636.63;4153488;28;20503;-65
2022/08/24 02:04:02;;;;;;;8.55;3.47;;;;;;;22.89;45.56;100628.72;4123481;28;20049;-65
2022/08/24 02:06:05;;;;;;;5.85;3.22;;;;;;;22.88;45.80;100631.41;4142371;28;20550;-65
2022/08/24 02:08:09;;;;;;;5.63;3.28;;;;;;;22.86;45.89;100636.78;4138539;28;20030;-65
2022/08/24 02:10:14;;;;;;;6.55;3.45;;;;;;;22.88;45.68;100637.63;4143777;28;20292;-64
2022/08/24 02:12:19;;;;;;;8.07;3.53;;;;;;;22.80;45.83;100632.56;4149545;28;20071;-65
2022/08/24 02:14:22;;;;;;;8.90;3.58;;;;;;;22.78;45.96;100645.00;4138465;28;20042;-66
2022/08/24 02:16:28;;;;;;;8.68;4.03;;;;;;;22.86;45.80;100641.22;4144562;28;20045;-65
2022/08/24 02:18:32;;;;;;;6.03;3.25;;;;;;;22.84;45.71;100646.59;4161559;28;20092;-65
2022/08/24 02:20:36;;;;;;;6.45;3.58;;;;;;;22.87;45.57;100646.47;4159802;28;20038;-65
2022/08/24 02:22:40;;;;;;;6.32;3.72;;;;;;;22.90;45.37;100649.03;4121751;28;20030;-65
2022/08/24 02:24:43;;;;;;;7.18;3.50;;;;;;;22.91;45.51;100653.41;4150499;28;20073;-65
2022/08/24 02:26:46;;;;;;;11.32;4.03;;;;;;;22.84;45.45;100651.88;4118030;28;20089;-64
2022/08/24 02:28:50;;;;;;;10.75;4.38;;;;;;;22.80;45.74;100655.56;4133929;28;20039;-64
2022/08/24 02:30:53;;;;;;;8.73;4.05;;;;;;;22.78;45.64;100652.97;4141818;28;20081;-65
2022/08/24 02:32:56;;;;;;;9.40;4.65;;;;;;;22.75;45.14;100650.41;4135260;28;20081;-65
2022/08/24 02:35:00;;;;;;;9.25;4.50;;;;;;;22.67;45.23;100653.28;4140043;28;20100;-65
2022/08/24 02:37:03;;;;;;;8.52;4.75;;;;;;;22.73;45.38;100656.66;4140037;28;20049;-65
2022/08/24 02:39:07;;;;;;;8.63;4.20;;;;;;;22.79;45.32;100667.06;4138160;28;20064;-65
2022/08/24 02:41:10;;;;;;;8.77;4.18;;;;;;;22.81;45.70;100663.44;4158844;28;20427;-64
2022/08/24 02:43:14;;;;;;;;;;;;;;;22.67;46.19;100660.38;4152450;28;20033;-65
2022/08/24 02:45:19;;;;;;;9.40;4.03;;;;;;;22.77;45.65;100655.66;4152133;28;19960;-65
2022/08/24 02:47:22;;;;;;;7.72;4.43;;;;;;;22.81;45.75;100657.28;4143179;28;20499;-65
2022/08/24 02:49:40;;;;;;;8.90;4.68;;;;;;;22.75;45.82;100655.72;4121953;28;20039;-65
2022/08/24 02:51:46;;;;;;;12.05;4.70;;;;;;;22.79;45.53;100662.66;4145077;28;20038;-65
2022/08/24 02:53:52;;;;;;;8.30;4.00;;;;;;;22.73;45.64;100654.88;4142430;28;20053;-65
2022/08/24 02:55:56;;;;;;;10.30;4.55;;;;;;;22.75;45.71;100657.47;4144496;28;20314;-65
2022/08/24 02:57:59;;;;;;;7.85;4.22;;;;;;;22.81;45.37;100659.94;4135666;28;20041;-65
2022/08/24 03:00:04;;;;;;;7.95;3.90;;;;;;;22.79;45.51;100659.13;4156431;28;20033;-65
2022/08/24 03:02:14;;;;;;;7.13;4.43;;;;;;;22.78;45.36;100665.31;4142388;28;20444;-65
2022/08/24 03:04:17;;;;;;;;;;;;;;;22.59;45.82;100663.28;4147502;28;20214;-65
2022/08/24 03:06:20;;;;;;;8.88;4.68;;;;;;;22.59;45.56;100662.41;4140729;28;19953;-65
2022/08/24 03:08:23;;;;;;;10.35;4.80;;;;;;;22.57;45.96;100648.34;4124697;28;20046;-65
2022/08/24 03:10:26;;;;;;;10.57;4.50;;;;;;;22.60;45.89;100651.75;4153670;28;20490;-65
2022/08/24 03:12:29;;;;;;;9.38;4.68;;;;;;;22.62;46.08;100652.59;4136772;28;20081;-65
2022/08/24 03:14:32;;;;;;;7.85;4.47;;;;;;;22.58;46.02;100650.09;4156893;28;20091;-65
2022/08/24 03:16:35;;;;;;;9.35;4.80;;;;;;;22.63;45.86;100649.03;4139125;28;20121;-65
2022/08/24 03:18:39;;;;;;;8.47;4.53;;;;;;;22.65;45.82;100652.50;4159093;28;20025;-65
2022/08/24 03:20:45;;;;;;;10.43;4.85;;;;;;;22.61;45.71;100655.28;4140377;28;20504;-65
2022/08/24 03:22:48;;;;;;;14.13;5.18;;;;;;;22.58;45.69;100648.31;4146594;28;20053;-65
2022/08/24 03:24:50;;;;;;;10.52;5.05;;;;;;;22.53;45.83;100652.91;4143911;28;20030;-65
2022/08/24 03:26:54;;;;;;;12.20;4.75;;;;;;;22.53;45.91;100655.56;4122324;28;20043;-65
2022/08/24 03:28:57;;;;;;;8.45;4.88;;;;;;;22.47;46.01;100653.09;4137421;28;20081;-65
2022/08/24 03:31:02;;;;;;;9.70;4.68;;;;;;;22.52;46.09;100651.16;4139672;28;20061;-65
2022/08/24 03:33:05;;;;;;;9.32;4.70;;;;;;;22.59;46.14;100646.50;4146879;28;20522;-65
2022/08/24 03:35:10;;;;;;;8.18;4.78;;;;;;;22.50;46.01;100655.63;4147564;28;20536;-65
2022/08/24 03:37:13;;;;;;;7.97;4.72;;;;;;;22.47;46.20;100650.44;4139485;28;20051;-65
2022/08/24 03:39:17;;;;;;;8.85;4.90;;;;;;;22.44;46.15;100653.19;4148429;28;20459;-65
2022/08/24 03:41:23;;;;;;;8.05;4.43;;;;;;;22.36;46.50;100658.72;4128284;28;20042;-67
2022/08/24 03:45:46;;;;;;;7.50;4.70;;;;;;;22.69;45.96;100652.38;4144566;28;20049;-71
2022/08/24 03:47:49;;;;;;;8.50;4.20;;;;;;;22.83;45.49;100656.31;4140370;28;20038;-70
2022/08/24 03:49:55;;;;;;;10.82;4.68;;;;;;;22.84;45.33;100654.53;4117558;28;20039;-70
2022/08/24 03:51:59;;;;;;;7.95;4.25;;;;;;;22.89;45.19;100652.59;4146216;28;20038;-71
2022/08/24 03:54:02;;;;;;;10.52;4.25;;;;;;;22.96;45.07;100651.44;4147454;28;20037;-70
2022/08/24 03:56:06;;;;;;;10.97;4.37;;;;;;;22.99;45.04;100651.34;4146482;28;20034;-70
2022/08/24 03:58:10;;;;;;;8.43;4.22;;;;;;;22.98;45.05;100649.63;4147956;28;20112;-71
2022/08/24 04:00:14;;;;;;;11.32;4.63;;;;;;;22.82;45.59;100656.34;4138759;28;20057;-70
2022/08/24 04:02:25;;;;;;;8.63;4.70;;;;;;;22.69;45.86;100657.69;4139784;28;20096;-70
2022/08/24 04:04:34;;;;;;;15.38;5.05;;;;;;;22.55;46.17;100664.31;4138000;28;20065;-71
2022/08/24 04:06:39;;;;;;;11.23;4.55;;;;;;;22.54;46.05;100659.91;4161538;28;20496;-71
2022/08/24 04:08:44;;;;;;;11.27;4.05;;;;;;;22.55;46.08;100666.97;4125453;28;20129;-70
2022/08/24 04:10:47;;;;;;;8.30;4.13;;;;;;;22.59;45.93;100665.06;4140679;28;20450;-71
2022/08/24 04:12:50;;;;;;;9.77;4.10;;;;;;;22.56;46.13;100659.88;4143825;28;20069;-67
2022/08/24 04:14:56;;;;;;;7.80;4.25;;;;;;;22.42;46.09;100665.63;4154727;28;20491;-69
2022/08/24 04:17:01;;;;;;;11.20;3.80;;;;;;;22.20;46.83;100668.06;4145771;28;20057;-68
2022/08/24 04:19:08;;;;;;;9.60;4.60;;;;;;;22.06;47.28;100671.09;4156483;28;20042;-68
2022/08/24 04:21:18;;;;;;;7.25;4.10;;;;;;;21.95;47.34;100677.59;4130940;28;20077;-68
2022/08/24 04:23:22;;;;;;;7.80;4.32;;;;;;;21.80;47.80;100667.47;4147616;28;20088;-68
2022/08/24 04:25:38;;;;;;;11.20;4.30;;;;;;;21.67;48.04;100672.25;4164441;28;20435;-68
2022/08/24 04:27:41;;;;;;;15.63;4.88;;;;;;;21.55;48.32;100668.16;4147845;28;20054;-68
2022/08/24 04:29:44;;;;;;;8.45;4.45;;;;;;;21.42;48.79;100672.00;4146979;28;20042;-68
2022/08/24 04:31:47;;;;;;;9.55;4.80;;;;;;;21.28;48.88;100672.41;4140517;28;20117;-68
2022/08/24 04:33:51;;;;;;;7.70;4.70;;;;;;;21.12;49.30;100676.38;4147843;28;20042;-68
2022/08/24 04:35:57;;;;;;;14.25;5.90;;;;;;;21.07;49.18;100676.47;4147773;28;20046;-69
2022/08/24 04:38:02;;;;;;;10.20;5.05;;;;;;;21.06;48.65;100677.38;4147718;28;20137;-68
2022/08/24 04:40:07;;;;;;;11.65;5.18;;;;;;;21.04;48.39;100679.19;4146479;28;20460;-68
2022/08/24 04:42:19;;;;;;;9.90;4.70;;;;;;;21.00;48.49;100685.47;4139497;28;20042;-68
2022/08/24 04:44:22;;;;;;;7.70;4.53;;;;;;;20.96;48.60;100689.09;4147542;28;20096;-68
2022/08/24 04:46:26;;;;;;;7.05;4.07;;;;;;;20.98;48.62;100690.78;4147580;28;20096;-69
2022/08/24 04:48:30;;;;;;;7.60;4.13;;;;;;;21.02;48.86;100696.88;4147645;28;20042;-69
2022/08/24 04:50:34;;;;;;;11.88;4.75;;;;;;;21.04;49.63;100697.69;4144167;28;20078;-68
2022/08/24 04:52:37;;;;;;;;;;;;;;;20.90;50.71;100692.75;4142511;28;20046;-68
2022/08/24 04:54:40;;;;;;;5.30;4.18;;;;;;;20.99;49.96;100694.31;4142865;28;20004;-68
2022/08/24 04:56:46;;;;;;;6.93;3.90;;;;;;;20.98;49.44;100697.84;4143534;28;20065;-68
2022/08/24 04:58:50;;;;;;;9.68;4.32;;;;;;;20.91;49.38;100700.66;4146440;28;20076;-68
2022/08/24 05:00:53;;;;;;;;;;;;;;;20.73;50.08;100709.03;4139465;28;20070;-68
2022/08/24 05:02:56;;;;;;;7.97;4.00;;;;;;;20.82;49.99;100708.81;4144357;28;19928;-68
2022/08/24 05:04:59;;;;;;;8.75;4.60;;;;;;;20.92;49.20;100709.44;4146318;28;20034;-68
2022/08/24 05:07:03;;;;;;;9.07;4.28;;;;;;;20.99;49.12;100710.16;4139123;28;20045;-68
2022/08/24 05:09:07;;;;;;;9.90;5.05;;;;;;;21.04;49.29;100709.16;4146311;28;20041;-68
2022/08/24 05:11:10;;;;;;;7.38;4.53;;;;;;;21.04;49.91;100714.44;4163369;28;20065;-68
2022/08/24 05:13:14;;;;;;;13.32;4.90;;;;;;;21.06;50.04;100711.75;4146707;28;20717;-68
2022/08/24 05:15:18;;;;;;;9.45;4.63;;;;;;;21.12;49.82;100705.44;4134138;28;20049;-68
2022/08/24 05:17:21;;;;;;;;;;;;;;;20.99;50.27;100715.44;4139252;28;20046;-68
2022/08/24 05:19:24;;;;;;;9.30;4.28;;;;;;;20.99;50.56;100712.81;4147073;28;20319;-68
2022/08/24 05:21:29;;;;;;;10.98;4.47;;;;;;;21.02;50.62;100715.38;4146988;28;20042;-68
2022/08/24 05:23:34;;;;;;;8.23;4.50;;;;;;;21.09;50.05;100716.97;4146768;28;20046;-68
2022/08/24 05:25:37;;;;;;;9.23;5.13;;;;;;;21.11;49.67;100707.19;4148556;28;20041;-68
2022/08/24 05:27:40;;;;;;;10.60;4.13;;;;;;;21.15;49.62;100716.78;4144669;28;20041;-68
2022/08/24 05:29:43;;;;;;;7.43;4.05;;;;;;;21.16;49.32;100721.19;4130937;28;20089;-68
2022/08/24 05:31:47;;;;;;;7.50;4.13;;;;;;;21.21;49.09;100719.28;4130598;28;20139;-68
2022/08/24 05:33:51;;;;;;;13.43;4.38;;;;;;;21.23;49.13;100712.19;4130545;28;20048;-68
2022/08/24 05:35:56;;;;;;;10.93;5.07;;;;;;;21.25;49.29;100717.44;4137577;28;20034;-68
2022/08/24 05:38:00;;;;;;;14.05;4.45;;;;;;;21.26;49.24;100714.75;4138709;28;20068;-68
2022/08/24 05:40:11;;;;;;;10.20;4.15;;;;;;;21.28;49.32;100720.00;4147963;28;20107;-68
2022/08/24 05:42:17;;;;;;;8.90;4.00;;;;;;;21.28;49.30;100720.84;4145742;28;20046;-68
2022/08/24 05:44:23;;;;;;;8.15;4.38;;;;;;;21.31;49.28;100719.06;4146775;28;20046;-68
2022/08/24 05:46:32;;;;;;;10.32;4.22;;;;;;;21.35;49.18;100723.31;4143514;28;20041;-68
2022/08/24 05:48:37;;;;;;;11.77;4.30;;;;;;;21.42;49.32;100724.91;4142629;28;20411;-68
2022/08/24 05:50:42;;;;;;;9.68;4.70;;;;;;;21.46;48.88;100731.84;4148208;28;20046;-68
2022/08/24 05:52:47;;;;;;;9.65;4.03;;;;;;;21.51;48.52;100723.81;4130130;28;20042;-68
2022/08/24 05:54:52;;;;;;;10.00;3.97;;;;;;;21.55;48.53;100729.00;4162803;28;20114;-68
2022/08/24 05:56:56;;;;;;;9.85;3.95;;;;;;;21.59;48.37;100725.34;4161388;28;20491;-68
2022/08/24 05:58:59;;;;;;;11.23;4.43;;;;;;;21.64;48.18;100724.34;4132714;28;20034;-68
2022/08/24 06:01:06;;;;;;;7.45;3.50;;;;;;;21.67;48.25;100722.50;4114160;28;20047;-68
2022/08/24 06:03:09;;;;;;;7.93;3.88;;;;;;;21.70;48.31;100724.19;4130344;28;20088;-68
2022/08/24 06:05:22;;;;;;;9.13;3.95;;;;;;;21.73;48.42;100729.41;4146660;28;20161;-68
2022/08/24 06:07:25;;;;;;;10.30;4.25;;;;;;;21.75;48.33;100732.88;4130318;28;20475;-68
2022/08/24 06:09:31;;;;;;;10.60;3.72;;;;;;;21.78;48.27;100730.13;4130444;28;20385;-68
2022/08/24 06:11:36;;;;;;;9.88;4.35;;;;;;;21.84;48.15;100726.47;4138631;28;20049;-68
2022/08/24 06:13:40;;;;;;;15.38;4.95;;;;;;;21.85;48.31;100737.00;4122241;28;20114;-67
2022/08/24 06:15:45;;;;;;;9.93;3.63;;;;;;;21.89;48.37;100729.81;4146615;28;20400;-68
2022/08/24 06:18:08;;;;;;;9.07;4.30;;;;;;;21.92;48.32;100730.63;4146737;28;20124;-68
2022/08/24 06:20:11;;;;;;;8.60;4.30;;;;;;;21.95;48.01;100735.81;4146463;28;20132;-68
2022/08/24 06:22:16;;;;;;;14.98;4.55;;;;;;;22.02;47.91;100722.41;4145212;28;20136;-68
2022/08/24 06:27:19;;;;;;;9.00;3.97;;;;;;;22.06;48.07;100729.34;4138791;28;20538;-68
2022/08/24 06:29:18;;;;;;;8.82;4.15;;;;;;;22.14;47.85;100730.00;4145510;28;20141;-68
2022/08/24 06:31:25;;;;;;;10.43;4.43;;;;;;;22.19;47.64;100733.38;4131424;28;20560;-68
2022/08/24 06:33:29;;;;;;;7.15;4.22;;;;;;;22.22;47.59;100730.63;4154020;28;20073;-68
2022/08/24 06:35:33;;;;;;;13.20;4.85;;;;;;;22.28;47.41;100730.47;4146406;28;20385;-68
2022/08/24 06:37:37;;;;;;;9.00;3.97;;;;;;;22.34;47.31;100733.84;4129971;28;20054;-68
2022/08/24 06:39:41;;;;;;;7.53;4.38;;;;;;;22.38;47.39;100738.16;4149302;28;20136;-68
2022/08/24 06:41:45;;;;;;;12.52;4.50;;;;;;;22.43;47.20;100741.53;4144535;28;20452;-68
2022/08/24 06:43:55;;;;;;;10.40;5.22;;;;;;;22.48;47.08;100744.91;4141227;28;20045;-67
2022/08/24 06:46:03;;;;;;;11.35;6.65;;;;;;;22.54;46.84;100743.84;4149516;28;20050;-68
2022/08/24 06:48:10;;;;;;;14.40;7.55;;;;;;;22.58;46.87;100741.06;4149420;28;20100;-68
2022/08/24 06:50:13;;;;;;;19.35;8.50;;;;;;;22.62;46.91;100742.69;4149363;28;20037;-68
2022/08/24 06:52:16;;;;;;;15.98;8.90;;;;;;;22.70;46.84;100750.41;4143605;28;20125;-68
2022/08/24 06:54:20;;;;;;;17.75;9.20;;;;;;;22.78;46.83;100752.78;4141527;28;20097;-68
2022/08/24 06:56:24;;;;;;;17.70;8.80;;;;;;;22.82;46.38;100757.09;4149222;28;20574;-68
2022/08/24 06:58:28;;;;;;;21.38;9.77;;;;;;;22.89;46.46;100755.97;4150464;28;20502;-68
2022/08/24 07:00:31;;;;;;;;;;;;;;;22.84;46.65;100752.63;4147542;28;20472;-68
2022/08/24 07:02:35;;;;;;;10.85;7.43;;;;;;;22.95;46.33;100753.13;4140784;28;19964;-68
2022/08/24 07:04:39;;;;;;;13.82;5.50;;;;;;;22.98;45.48;100752.16;4149324;28;20496;-68
2022/08/24 07:07:05;;;;;;;12.13;4.63;;;;;;;22.96;45.20;100759.31;4150191;28;20120;-68
2022/08/24 07:09:08;;;;;;;7.63;4.38;;;;;;;23.05;45.11;100755.47;4148327;28;20066;-68
2022/08/24 07:11:16;;;;;;;12.75;4.70;;;;;;;23.10;44.78;100756.19;4148347;28;20033;-67
2022/08/24 07:13:19;;;;;;;10.82;3.70;;;;;;;23.14;44.93;100760.50;4132532;28;20070;-67
2022/08/24 07:15:23;;;;;;;6.93;3.67;;;;;;;23.21;44.86;100759.38;4132814;28;20543;-68
2022/08/24 07:17:39;;;;;;;10.48;3.65;;;;;;;23.27;44.53;100755.66;4135718;28;20523;-67
2022/08/24 07:19:42;;;;;;;6.57;3.22;;;;;;;23.27;43.87;100751.22;4147780;28;20045;-67
2022/08/24 07:21:47;;;;;;;10.02;4.50;;;;;;;23.43;43.85;100756.00;4140420;28;20034;-67
2022/08/24 07:23:55;;;;;;;8.27;3.35;;;;;;;23.51;42.85;100759.28;4165213;28;20041;-67
2022/08/24 07:26:05;;;;;;;6.00;3.55;;;;;;;23.60;42.40;100756.28;4132728;28;20073;-67
2022/08/24 07:28:11;;;;;;;8.88;2.70;;;;;;;23.60;42.34;100752.78;4146224;28;20034;-66
2022/08/24 07:30:16;;;;;;;5.80;2.90;;;;;;;23.60;42.28;100755.44;4142577;28;20038;-67
2022/08/24 07:32:31;;;;;;;10.48;4.30;;;;;;;23.59;42.51;100756.34;4141617;28;20045;-67
2022/08/24 07:34:33;;;;;;;5.75;3.30;;;;;;;23.60;42.19;100758.94;4146042;28;20491;-67
2022/08/24 07:36:39;;;;;;;5.82;3.28;;;;;;;23.61;42.28;100755.38;4132676;28;20117;-67
2022/08/24 07:38:46;;;;;;;7.57;3.47;;;;;;;23.67;42.18;100765.75;4129850;28;20042;-67
2022/08/24 07:40:51;;;;;;;8.35;3.80;;;;;;;23.79;42.29;100759.16;4147486;28;20038;-67
2022/08/24 07:43:16;;;;;;;;;;;;;;;23.79;41.86;100759.16;4147245;28;20038;-67
2022/08/24 07:45:21;;;;;;;8.43;3.70;;;;;;;23.84;41.84;100761.63;4149604;28;19928;-67
2022/08/24 07:47:26;;;;;;;12.50;4.15;;;;;;;23.90;41.73;100761.44;4147864;28;20050;-66
2022/08/24 07:49:53;;;;;;;7.03;3.58;;;;;;;24.00;41.28;100762.81;4140106;28;20034;-67
2022/08/24 07:51:56;;;;;;;6.82;3.50;;;;;;;24.12;40.80;100757.97;4148063;28;20355;-67
2022/08/24 07:54:02;;;;;;;5.43;3.10;;;;;;;24.10;40.77;100760.69;4147322;28;20068;-67
2022/08/24 07:56:15;;;;;;;5.55;3.28;;;;;;;24.10;40.87;100763.34;4130064;28;20567;-67
2022/08/24 07:58:23;;;;;;;7.97;3.13;;;;;;;24.19;40.86;100762.16;4160666;28;20037;-67
2022/08/24 08:00:26;;;;;;;8.65;3.28;;;;;;;24.35;40.87;100778.38;4140773;28;20508;-67
2022/08/24 08:02:34;;;;;;;5.78;3.15;;;;;;;24.30;40.71;100770.59;4139800;28;20093;-67
2022/08/24 08:04:38;;;;;;;7.40;3.63;;;;;;;24.36;40.45;100770.34;4164585;28;20088;-67
2022/08/24 08:06:42;;;;;;;5.38;3.00;;;;;;;24.41;40.60;100764.84;4148176;28;20496;-67
2022/08/24 08:08:45;;;;;;;9.73;3.33;;;;;;;24.49;40.46;100769.88;4148280;28;20049;-67
2022/08/24 08:10:48;;;;;;;9.23;3.63;;;;;;;24.61;39.68;100765.91;4130800;28;20046;-67
2022/08/24 08:12:51;;;;;;;16.73;5.15;;;;;;;24.75;39.60;100774.22;4142783;28;20038;-67
2022/08/24 08:14:57;;;;;;;7.95;3.22;;;;;;;24.73;39.89;100774.25;4131909;28;20042;-67
2022/08/24 08:17:00;;;;;;;9.70;3.55;;;;;;;24.70;40.03;100769.03;4131922;28;20121;-67
2022/08/24 08:19:03;;;;;;;9.57;3.50;;;;;;;24.73;39.64;100770.72;4123068;28;20137;-67
2022/08/24 08:26:06;;;;;;;9.10;3.45;;;;;;;24.94;39.51;100776.97;4131707;28;20046;-67
2022/08/24 08:28:35;;;;;;;10.75;3.65;;;;;;;24.96;39.25;100772.47;4146856;28;20037;-67
2022/08/24 08:30:41;;;;;;;5.63;3.13;;;;;;;25.03;39.00;100776.59;4149306;28;20042;-67
2022/08/24 08:32:45;;;;;;;8.57;3.25;;;;;;;25.09;39.19;100776.34;4131348;28;20046;-67
2022/08/24 08:34:48;;;;;;;8.13;3.05;;;;;;;25.15;39.01;100774.38;4131490;28;20049;-67
2022/08/24 08:36:55;;;;;;;8.23;3.55;;;;;;;25.22;38.66;100774.03;4143399;28;20044;-67
2022/08/24 08:38:59;;;;;;;10.35;4.10;;;;;;;25.29;38.45;100771.13;4143523;28;20033;-67
2022/08/24 08:41:20;;;;;;;11.20;3.97;;;;;;;25.40;38.71;100772.41;4123282;28;20054;-67
2022/08/24 08:43:43;;;;;;;10.20;4.07;;;;;;;25.52;38.00;100763.03;4124217;28;20038;-67
2022/08/24 08:46:04;;;;;;;8.60;3.13;;;;;;;25.52;38.24;100778.16;4158817;28;20034;-67
2022/08/24 08:48:59;;;;;;;7.10;3.22;;;;;;;25.51;39.05;100771.09;4133036;28;20042;-67
2022/08/24 08:51:36;;;;;;;6.30;2.78;;;;;;;25.51;38.80;100776.41;4141990;28;20491;-67
2022/08/24 08:54:04;;;;;;;6.57;3.17;;;;;;;25.55;38.38;100770.03;4144076;28;20089;-67
2022/08/24 08:56:22;;;;;;;8.05;3.53;;;;;;;25.63;38.12;100769.69;4128820;28;20053;-67
2022/08/24 08:58:45;;;;;;;4.93;2.72;;;;;;;25.71;38.43;100768.41;4131209;28;20054;-67
2022/08/24 09:01:17;;;;;;;7.82;3.47;;;;;;;25.85;37.46;100766.97;4146653;28;20049;-66
2022/08/24 09:03:36;;;;;;;5.07;2.95;;;;;;;25.94;37.35;100766.53;4147118;28;20563;-67
2022/08/24 09:06:40;;;;;;;7.72;3.45;;;;;;;25.93;37.32;100762.13;4131581;28;20050;-67
2022/08/24 09:09:06;;;;;;;6.47;3.63;;;;;;;25.90;37.73;100772.94;4131170;28;20444;-67
2022/08/24 09:11:19;;;;;;;5.95;3.25;;;;;;;25.96;37.66;100768.22;4139639;28;20093;-67
2022/08/24 09:13:40;;;;;;;12.40;3.50;;;;;;;25.98;37.05;100770.78;4146860;28;20141;-67
2022/08/24 09:16:09;;;;;;;9.02;3.67;;;;;;;26.15;37.02;100766.53;4131266;28;20559;-67
2022/08/24 09:18:32;;;;;;;6.55;3.20;;;;;;;26.18;37.40;100771.72;4115023;28;20050;-67
2022/08/24 09:21:01;;;;;;;9.68;3.95;;;;;;;26.28;36.90;100770.34;4139901;28;20439;-67
2022/08/24 09:23:19;;;;;;;8.85;3.28;;;;;;;26.42;36.64;100773.22;4145021;28;20038;-67
2022/08/24 09:25:27;;;;;;;6.55;3.17;;;;;;;26.47;37.02;100773.91;4146958;28;20053;-67
2022/08/24 09:27:56;;;;;;;7.60;3.08;;;;;;;26.56;37.20;100769.94;4161380;28;20045;-67
2022/08/24 09:30:09;;;;;;;5.90;2.60;;;;;;;26.68;37.03;100780.94;4155019;28;20042;-67
2022/08/24 09:32:32;;;;;;;8.80;3.35;;;;;;;26.75;37.19;100779.72;4147407;28;20045;-67
2022/08/24 09:34:46;;;;;;;9.60;2.83;;;;;;;26.83;36.79;100770.41;4148025;28;20045;-67
2022/08/24 09:36:55;;;;;;;9.38;3.30;;;;;;;26.91;36.49;100774.50;4148193;28;20487;-66
2022/08/24 09:39:06;;;;;;;11.93;3.63;;;;;;;26.95;36.44;100774.28;4145728;28;20527;-67
2022/08/24 09:41:33;;;;;;;7.35;2.90;;;;;;;26.95;36.39;100773.41;4139435;28;20052;-66
2022/08/24 09:44:21;;;;;;;11.05;3.22;;;;;;;26.99;36.22;100770.50;4132335;28;20380;-66
2022/08/24 09:46:58;;;;;;;9.25;3.35;;;;;;;27.08;36.67;100766.53;4138503;28;20056;-66
2022/08/24 09:49:37;;;;;;;7.38;2.72;;;;;;;27.18;36.45;100766.94;4114770;28;20558;-67
2022/08/24 09:52:18;;;;;;;7.22;3.42;;;;;;;27.28;35.76;100764.66;4131467;28;20049;-67
2022/08/24 09:54:56;;;;;;;7.70;3.50;;;;;;;27.33;35.56;100773.28;4136087;28;20038;-67
2022/08/24 09:57:16;;;;;;;5.78;3.35;;;;;;;27.39;35.56;100767.66;4138116;28;20038;-67
2022/08/24 09:59:45;;;;;;;8.30;3.10;;;;;;;27.46;35.41;100761.06;4147931;28;20038;-67
2022/08/24 10:02:07;;;;;;;11.77;4.47;;;;;;;27.62;35.48;100762.94;4146223;28;20044;-67
2022/08/24 10:04:23;;;;;;;13.93;3.97;;;;;;;27.74;34.55;100756.09;4146750;28;20045;-67
2022/08/24 10:06:38;;;;;;;11.77;4.10;;;;;;;27.81;34.64;100758.34;4139682;28;20069;-67
2022/08/24 10:09:01;;;;;;;13.93;3.42;;;;;;;27.78;34.75;100753.16;4130408;28;20049;-67